This is the latest recevied weather packets stored in our database for station/object KK7KRZ. If no packets are shown the sender has not sent any weather packets the latest 10 day(s).
| Time | Temp. | Humidity | Pressure | Rain* | Wind** | Luminosity | Snow |
|---|---|---|---|---|---|---|---|
| 1778022833 | 18.89° C | 68% | 1015.4 hPa | 0 mm | - | 80 W/m² | - |
| 1778022531 | 18.89° C | 66% | 1015.5 hPa | 0 mm | - | 89 W/m² | - |
| 1778022228 | 18.89° C | 66% | 1015.5 hPa | 0 mm | - | 229 W/m² | - |
| 1778021925 | 18.89° C | 67% | 1015.6 hPa | 0 mm | - | 193 W/m² | - |
| 1778021622 | 19.44° C | 66% | 1015.4 hPa | 0 mm | - | 217 W/m² | - |
| 1778021317 | 20.56° C | 66% | 1015.4 hPa | 0 mm | - | 395 W/m² | - |
| 1778021015 | 18.89° C | 68% | 1015.6 hPa | 0 mm | - | 595 W/m² | - |
| 1778020712 | 17.78° C | 70% | 1015.8 hPa | 0 mm | - | 578 W/m² | - |
| 1778020409 | 17.78° C | 70% | 1015.8 hPa | 0 mm | - | 367 W/m² | - |
| 1778020104 | 18.33° C | 70% | 1015.9 hPa | 0 mm | - | 249 W/m² | - |
| 1778019801 | 17.78° C | 74% | 1015.9 hPa | 0 mm | - | 249 W/m² | - |
| 1778019498 | 17.78° C | 73% | 1016 hPa | 0 mm | - | 248 W/m² | - |
| 1778019195 | 17.78° C | 72% | 1015.9 hPa | 0 mm | - | 223 W/m² | - |
| 1778018892 | 17.78° C | 73% | 1015.9 hPa | 0 mm | - | 216 W/m² | - |
| 1778018589 | 17.78° C | 76% | 1015.8 hPa | 0 mm | - | 216 W/m² | - |
| 1778018287 | 17.22° C | 74% | 1016 hPa | 0 mm | - | 198 W/m² | - |
| 1778017984 | 17.78° C | 73% | 1015.9 hPa | 0 mm | - | 186 W/m² | - |
| 1778017682 | 17.22° C | 74% | 1016 hPa | 0 mm | - | 184 W/m² | - |
| 1778017379 | 17.22° C | 73% | 1015.9 hPa | 0 mm | - | 174 W/m² | - |
| 1778017076 | 17.22° C | 75% | 1016 hPa | 0 mm | - | 170 W/m² | - |
| 1778016774 | 16.67° C | 75% | 1016 hPa | 0 mm | - | 177 W/m² | - |
| 1778016469 | 17.22° C | 74% | 1016 hPa | 0 mm | - | 180 W/m² | - |
| 1778016167 | 17.22° C | 73% | 1015.9 hPa | 0 mm | - | 186 W/m² | - |
| 1778015864 | 17.22° C | 73% | 1016.1 hPa | 0 mm | - | 183 W/m² | - |
| 1778015561 | 17.22° C | 74% | 1015.9 hPa | 0 mm | - | 167 W/m² | - |
* Rain latest hour (hover to see other rain measurements)
** Current wind speed in m/s (hover to see current wind gust speed)